Accueil
METAR-TAF:

METAR-TAF

Aéroports :

Aérodrome de Tétouan - Sania R'mel

Tétouan, Maroc

latitude: 35-35N, longitude: 005-20W, altitude: 10 m

Observation

Le bulletin a été fait il y a 58 minutes, à 22:00 UTC
Vent 2 kt de nord/nord-ouest
Température 13°C
Humidité 82%
Pression 1014 hPa
Visibilité: 7000 m
Quelques nuages à une hauteur de 3300 ft
Nuages épars à une hauteur de 5000 ft

METAR: GMTN 192200Z 34002KT 7000 FEW033 SCT050 13/10 Q1014 NOSIG

Heure: 23:58 (22:58 UTC)


TAF: absent

Observations et prévisions météorologiques de plus de 4000 aéroports (messages METAR et TAF).

Les stations disponibles sont représentées par des disques jaunes et rouges sur la carte.

Passer la souris dessus pour voir le nom de la station.

Cliquer dessus pour voir les observations et prévisions météorologiques.

Pour changer de carte: cliquez sur les boutons verts avec une croix noire pour zoomer, sur le bouton vert avec un tiret pour effectuer un zoom arrière, ou sur les flèches vertes pour les cartes adjacentes.


METAR-TAF: